createdAt,value
2023-11-26T00:00:15.203Z,4.80
2023-11-26T00:01:59.889Z,4.33
2023-11-26T00:03:31.309Z,3.52
2023-11-26T00:04:54.074Z,2.79
2023-11-26T00:06:16.076Z,2.16
2023-11-26T00:07:38.911Z,1.61
2023-11-26T00:09:00.853Z,1.49
2023-11-26T00:10:22.777Z,2.09
2023-11-26T00:11:47.751Z,2.97
2023-11-26T00:13:28.381Z,3.88
2023-11-26T00:14:53.720Z,4.60
2023-11-26T00:16:15.503Z,4.41
2023-11-26T00:17:38.446Z,3.72
2023-11-26T00:19:00.022Z,2.98
2023-11-26T00:20:24.351Z,2.30
2023-11-26T00:21:49.103Z,1.69
2023-11-26T00:23:18.323Z,1.31
2023-11-26T00:24:42.922Z,1.77
2023-11-26T00:26:13.978Z,2.74
2023-11-26T00:27:37.513Z,3.62
2023-11-26T00:28:59.331Z,4.34
2023-11-26T00:30:22.995Z,4.55
2023-11-26T00:31:54.827Z,4.00
2023-11-26T00:33:21.839Z,3.20
2023-11-26T00:34:44.174Z,2.45
2023-11-26T00:36:05.647Z,1.85
2023-11-26T00:37:27.466Z,1.34
2023-11-26T00:38:50.093Z,1.36
2023-11-26T00:40:13.468Z,2.05
2023-11-26T00:41:48.693Z,2.95
2023-11-26T00:43:11.395Z,3.88
2023-11-26T00:44:35.097Z,4.49
2023-11-26T00:45:57.046Z,4.27
2023-11-26T00:47:18.759Z,3.60
2023-11-26T00:48:41.028Z,2.84
2023-11-26T00:50:10.053Z,2.11
2023-11-26T00:51:32.127Z,1.52
2023-11-26T00:52:55.504Z,1.16
2023-11-26T00:54:17.286Z,1.56
2023-11-26T00:55:44.201Z,2.42
2023-11-26T00:57:05.963Z,3.29
2023-11-26T00:58:27.676Z,4.04
2023-11-26T00:59:50.097Z,4.35
2023-11-26T01:01:11.748Z,3.90
2023-11-26T01:02:35.645Z,3.16
2023-11-26T01:03:57.890Z,2.42
2023-11-26T01:05:19.843Z,1.77
2023-11-26T01:06:45.272Z,1.22
2023-11-26T01:08:09.317Z,1.23
2023-11-26T01:09:43.396Z,1.97
2023-11-26T01:11:13.672Z,3.06
2023-11-26T01:12:36.004Z,3.86
2023-11-26T01:13:58.967Z,4.47
2023-11-26T01:15:20.762Z,4.33
2023-11-26T01:16:43.086Z,3.66
2023-11-26T01:18:05.345Z,2.89
2023-11-26T01:19:27.534Z,2.21
2023-11-26T01:20:49.641Z,1.62
2023-11-26T01:22:11.199Z,1.35
2023-11-26T01:23:45.130Z,1.87
2023-11-26T01:25:14.025Z,2.94
2023-11-26T01:26:38.579Z,3.76
2023-11-26T01:28:02.285Z,4.48
2023-11-26T01:29:23.826Z,4.59
2023-11-26T01:30:46.466Z,4.00
2023-11-26T01:32:10.068Z,3.25
2023-11-26T01:33:34.605Z,2.53
2023-11-26T01:34:56.512Z,1.92
2023-11-26T01:36:22.815Z,1.46
2023-11-26T01:37:53.871Z,1.81
2023-11-26T01:39:15.514Z,2.62
2023-11-26T01:40:57.156Z,3.57
2023-11-26T01:42:20.794Z,4.44
2023-11-26T01:43:45.424Z,4.65
2023-11-26T01:45:08.589Z,4.11
2023-11-26T01:46:31.191Z,3.37
2023-11-26T01:47:53.082Z,2.67
2023-11-26T01:49:14.887Z,2.06
2023-11-26T01:50:37.272Z,1.54
2023-11-26T01:51:59.256Z,1.54
2023-11-26T01:53:23.220Z,2.27
2023-11-26T01:54:45.434Z,3.15
2023-11-26T01:56:07.419Z,3.98
2023-11-26T01:57:31.383Z,4.61
2023-11-26T01:59:03.672Z,4.53
2023-11-26T02:00:25.759Z,3.78
2023-11-26T02:01:48.647Z,3.03
2023-11-26T02:03:13.061Z,2.37
2023-11-26T02:04:40.975Z,1.75
2023-11-26T02:06:02.894Z,1.33
2023-11-26T02:07:27.966Z,1.59
2023-11-26T02:08:50.972Z,2.44
2023-11-26T02:10:12.919Z,3.30
2023-11-26T02:11:45.062Z,4.10
2023-11-26T02:13:17.055Z,4.51
2023-11-26T02:14:40.633Z,3.98
2023-11-26T02:16:02.930Z,3.23
2023-11-26T02:17:27.883Z,2.50
2023-11-26T02:18:53.149Z,1.81
2023-11-26T02:20:34.126Z,1.23
2023-11-26T02:21:59.122Z,1.45
2023-11-26T02:23:21.871Z,2.24
2023-11-26T02:25:01.458Z,3.13
2023-11-26T02:26:37.639Z,4.02
2023-11-26T02:28:19.133Z,4.41
2023-11-26T02:29:42.506Z,3.76
2023-11-26T02:31:04.530Z,3.00
2023-11-26T02:32:33.740Z,2.27
2023-11-26T02:34:03.552Z,1.56
2023-11-26T02:35:25.466Z,1.13
2023-11-26T02:36:59.776Z,1.56
2023-11-26T02:38:21.339Z,2.46
2023-11-26T02:39:45.984Z,3.38
2023-11-26T02:41:10.867Z,4.15
2023-11-26T02:42:37.280Z,4.56
2023-11-26T02:44:08.604Z,4.12
2023-11-26T02:45:30.586Z,3.30
2023-11-26T02:46:53.241Z,2.57
2023-11-26T02:48:17.679Z,1.91
2023-11-26T02:49:52.345Z,1.36
2023-11-26T02:51:27.611Z,1.53
2023-11-26T02:52:52.288Z,2.34
2023-11-26T02:54:16.418Z,3.18
2023-11-26T02:55:47.977Z,4.01
2023-11-26T02:57:21.367Z,4.53
2023-11-26T02:58:53.840Z,4.05
2023-11-26T03:00:21.501Z,3.24
2023-11-26T03:01:58.360Z,2.44
2023-11-26T03:03:22.755Z,1.69
2023-11-26T03:05:00.961Z,1.18
2023-11-26T03:06:27.375Z,1.50
2023-11-26T03:07:52.122Z,2.33
2023-11-26T03:09:39.350Z,3.23
2023-11-26T03:11:20.184Z,4.10
2023-11-26T03:13:13.526Z,4.13
2023-11-26T03:14:35.674Z,3.27
2023-11-26T03:16:00.430Z,2.48
2023-11-26T03:17:24.051Z,1.80
2023-11-26T03:18:53.995Z,1.20
2023-11-26T03:20:19.290Z,0.97
2023-11-26T03:21:41.582Z,1.57
2023-11-26T03:23:05.958Z,2.47
2023-11-26T03:24:40.109Z,3.38
2023-11-26T03:26:14.063Z,4.06
2023-11-26T03:27:39.729Z,3.93
2023-11-26T03:29:02.554Z,3.22
2023-11-26T03:30:24.098Z,2.46
2023-11-26T03:31:48.535Z,1.76
2023-11-26T03:33:16.910Z,1.12
2023-11-26T03:34:39.340Z,0.80
2023-11-26T03:36:01.008Z,1.27
2023-11-26T03:37:23.428Z,2.11
2023-11-26T03:38:49.705Z,2.97
2023-11-26T03:40:11.981Z,3.75
2023-11-26T03:41:33.966Z,4.06
2023-11-26T03:42:55.804Z,3.61
2023-11-26T03:44:17.616Z,2.87
2023-11-26T03:45:40.219Z,2.14
2023-11-26T03:47:02.935Z,1.48
2023-11-26T03:48:24.690Z,0.91
2023-11-26T03:49:47.516Z,0.71
2023-11-26T03:51:11.357Z,1.27
2023-11-26T03:52:34.707Z,2.15
2023-11-26T03:53:56.871Z,3.02
2023-11-26T03:55:28.164Z,3.83
2023-11-26T03:56:50.390Z,3.96
2023-11-26T03:58:12.736Z,3.42
2023-11-26T03:59:35.219Z,2.65
2023-11-26T04:00:59.862Z,1.93
2023-11-26T04:02:21.783Z,1.28
2023-11-26T04:03:51.994Z,0.74
2023-11-26T04:05:13.755Z,0.83
2023-11-26T04:06:36.048Z,1.56
2023-11-26T04:07:57.805Z,2.45
2023-11-26T04:09:19.516Z,3.26
2023-11-26T04:10:41.975Z,3.88
2023-11-26T04:12:03.632Z,3.75
2023-11-26T04:13:28.314Z,3.07
2023-11-26T04:14:51.393Z,2.28
2023-11-26T04:16:14.349Z,1.56
2023-11-26T04:17:36.620Z,0.94
2023-11-26T04:18:58.752Z,0.53
2023-11-26T04:20:22.948Z,0.86
2023-11-26T04:21:48.039Z,1.72
2023-11-26T04:23:09.924Z,2.59
2023-11-26T04:24:34.554Z,3.34
2023-11-26T04:25:56.540Z,3.77
2023-11-26T04:27:18.377Z,3.40
2023-11-26T04:28:40.478Z,2.68
2023-11-26T04:30:04.431Z,1.94
2023-11-26T04:31:26.480Z,1.25
2023-11-26T04:33:03.620Z,0.60
2023-11-26T04:34:37.822Z,0.65
2023-11-26T04:36:09.716Z,1.44
2023-11-26T04:37:46.337Z,2.54
2023-11-26T04:39:09.978Z,3.35
2023-11-26T04:40:39.577Z,3.74
2023-11-26T04:42:02.264Z,3.29
2023-11-26T04:43:23.967Z,2.57
2023-11-26T04:44:49.012Z,1.84
2023-11-26T04:46:42.448Z,1.13
2023-11-26T04:48:09.976Z,0.50
2023-11-26T04:49:44.249Z,0.67
2023-11-26T04:51:18.844Z,1.46
2023-11-26T04:52:56.316Z,2.58
2023-11-26T04:54:30.038Z,3.44
2023-11-26T04:55:56.467Z,3.63
2023-11-26T04:57:31.489Z,2.94
2023-11-26T04:58:53.890Z,2.19
2023-11-26T05:00:23.038Z,1.44
2023-11-26T05:01:53.021Z,0.86
2023-11-26T05:03:18.801Z,0.39
2023-11-26T05:04:55.170Z,0.73
2023-11-26T05:06:28.690Z,1.81
2023-11-26T05:08:05.270Z,2.77
2023-11-26T05:09:27.157Z,3.49
2023-11-26T05:11:01.220Z,3.55
2023-11-26T05:12:35.790Z,2.77
2023-11-26T05:13:59.793Z,1.98
2023-11-26T05:15:33.215Z,1.22
2023-11-26T05:16:57.014Z,0.63
2023-11-26T05:18:19.300Z,0.27
2023-11-26T05:19:41.883Z,0.69
2023-11-26T05:21:03.995Z,1.55
2023-11-26T05:22:25.521Z,2.45
2023-11-26T05:23:49.818Z,3.27
2023-11-26T05:25:11.434Z,3.71
2023-11-26T05:26:33.983Z,3.35
2023-11-26T05:28:03.391Z,2.57
2023-11-26T05:29:29.366Z,1.82
2023-11-26T05:30:51.627Z,1.14
2023-11-26T05:32:13.590Z,0.57
2023-11-26T05:33:35.339Z,0.38
2023-11-26T05:34:56.847Z,0.96
2023-11-26T05:36:18.535Z,1.84
2023-11-26T05:37:44.130Z,2.69
2023-11-26T05:39:08.022Z,3.44
2023-11-26T05:40:29.499Z,3.65
2023-11-26T05:41:51.515Z,3.12
2023-11-26T05:43:15.637Z,2.38
2023-11-26T05:44:38.093Z,1.63
2023-11-26T05:46:00.138Z,0.98
2023-11-26T05:47:21.803Z,0.43
2023-11-26T05:48:44.107Z,0.35
2023-11-26T05:50:13.443Z,1.07
2023-11-26T05:51:35.321Z,1.98
2023-11-26T05:52:57.796Z,2.83
2023-11-26T05:54:29.619Z,3.57
2023-11-26T05:55:54.192Z,3.48
2023-11-26T05:57:16.445Z,2.80
2023-11-26T05:58:38.941Z,2.03
2023-11-26T06:00:00.767Z,1.32
2023-11-26T06:01:22.254Z,0.72
2023-11-26T06:02:44.465Z,0.32
2023-11-26T06:04:06.386Z,0.69
2023-11-26T06:05:30.905Z,1.57
2023-11-26T06:06:54.053Z,2.46
2023-11-26T06:08:16.149Z,3.26
2023-11-26T06:09:38.304Z,3.72
2023-11-26T06:11:02.590Z,3.37
2023-11-26T06:12:24.523Z,2.65
2023-11-26T06:13:47.094Z,1.93
2023-11-26T06:15:09.377Z,1.30
2023-11-26T06:16:31.528Z,0.75
2023-11-26T06:17:53.877Z,0.55
2023-11-26T06:19:17.680Z,1.10
2023-11-26T06:20:39.686Z,1.98
2023-11-26T06:22:01.492Z,2.84
2023-11-26T06:23:23.084Z,3.56
2023-11-26T06:24:46.764Z,3.85
2023-11-26T06:26:08.708Z,3.38
2023-11-26T06:27:30.922Z,2.65
2023-11-26T06:28:52.611Z,1.91
2023-11-26T06:30:16.154Z,1.28
2023-11-26T06:31:38.296Z,0.74
2023-11-26T06:33:02.521Z,0.78
2023-11-26T06:34:27.467Z,1.52
2023-11-26T06:35:49.613Z,2.46
2023-11-26T06:37:11.546Z,3.27
2023-11-26T06:38:33.661Z,3.90
2023-11-26T06:39:55.796Z,3.91
2023-11-26T06:41:17.284Z,3.34
2023-11-26T06:42:40.644Z,2.57
2023-11-26T06:44:05.385Z,1.85
2023-11-26T06:45:27.361Z,1.26
2023-11-26T06:46:50.089Z,0.84
2023-11-26T06:48:11.949Z,1.15
2023-11-26T06:49:36.446Z,1.98
2023-11-26T06:51:01.053Z,2.81
2023-11-26T06:52:22.592Z,3.57
2023-11-26T06:53:45.238Z,4.04
2023-11-26T06:55:06.926Z,3.71
2023-11-26T06:56:28.222Z,3.03
2023-11-26T06:57:53.177Z,2.30
2023-11-26T06:59:40.303Z,1.55
2023-11-26T07:01:10.281Z,0.92
2023-11-26T07:02:39.817Z,1.02
2023-11-26T07:04:11.645Z,1.85
2023-11-26T07:05:36.418Z,2.78
2023-11-26T07:07:00.855Z,3.64
2023-11-26T07:08:22.790Z,4.21
2023-11-26T07:09:53.064Z,3.97
2023-11-26T07:11:14.705Z,3.20
2023-11-26T07:12:36.841Z,2.47
2023-11-26T07:14:17.790Z,1.74
2023-11-26T07:15:47.539Z,1.17
2023-11-26T07:17:23.405Z,1.11
2023-11-26T07:18:45.702Z,1.86
2023-11-26T07:20:20.345Z,2.76
2023-11-26T07:21:42.751Z,3.72
2023-11-26T07:23:07.439Z,4.26
2023-11-26T07:24:39.340Z,3.95
2023-11-26T07:26:03.486Z,3.21
2023-11-26T07:27:25.495Z,2.52
2023-11-26T07:28:51.627Z,1.89
2023-11-26T07:30:15.452Z,1.35
2023-11-26T07:31:39.112Z,1.07
2023-11-26T07:33:01.429Z,1.57
2023-11-26T07:34:23.029Z,2.45
2023-11-26T07:35:45.163Z,3.35
2023-11-26T07:37:07.572Z,4.10
2023-11-26T07:38:29.260Z,4.29
2023-11-26T07:39:53.820Z,3.76
2023-11-26T07:41:16.445Z,3.06
2023-11-26T07:42:39.513Z,2.38
2023-11-26T07:44:14.961Z,1.72
2023-11-26T07:45:36.959Z,1.20
2023-11-26T07:47:02.828Z,1.19
2023-11-26T07:48:26.879Z,1.91
2023-11-26T07:49:49.240Z,2.83
2023-11-26T07:51:11.047Z,3.67
2023-11-26T07:52:35.042Z,4.33
2023-11-26T07:54:19.101Z,4.19
2023-11-26T07:55:45.405Z,3.35
2023-11-26T07:57:09.854Z,2.67
2023-11-26T07:58:35.376Z,2.07
2023-11-26T07:59:59.500Z,1.52
2023-11-26T08:01:21.226Z,1.19
2023-11-26T08:02:43.117Z,1.56
2023-11-26T08:04:05.115Z,2.40
2023-11-26T08:05:38.072Z,3.36
2023-11-26T08:07:03.256Z,4.14
2023-11-26T08:08:24.902Z,4.21
2023-11-26T08:09:49.638Z,3.66
2023-11-26T08:11:13.879Z,2.94
2023-11-26T08:12:37.525Z,2.26
2023-11-26T08:13:59.374Z,1.67
2023-11-26T08:15:21.509Z,1.18
2023-11-26T08:16:43.676Z,1.12
2023-11-26T08:18:07.568Z,1.81
2023-11-26T08:19:30.528Z,2.77
2023-11-26T08:20:54.728Z,3.68
2023-11-26T08:22:16.791Z,4.37
2023-11-26T08:23:41.357Z,4.29
2023-11-26T08:25:08.248Z,3.69
2023-11-26T08:26:35.028Z,2.96
2023-11-26T08:28:00.253Z,2.28
2023-11-26T08:29:22.936Z,1.75
2023-11-26T08:30:49.289Z,1.32
2023-11-26T08:32:11.374Z,1.46
2023-11-26T08:33:38.281Z,2.25
2023-11-26T08:35:02.141Z,3.25
2023-11-26T08:36:24.581Z,4.13
2023-11-26T08:37:47.005Z,4.60
2023-11-26T08:39:15.374Z,4.26
2023-11-26T08:40:37.457Z,3.54
2023-11-26T08:41:59.511Z,2.90
2023-11-26T08:43:22.178Z,2.33
2023-11-26T08:44:46.867Z,1.84
2023-11-26T08:46:14.104Z,1.42
2023-11-26T08:47:44.051Z,1.50
2023-11-26T08:49:17.748Z,2.33
2023-11-26T08:50:40.786Z,3.41
2023-11-26T08:52:03.889Z,4.26
2023-11-26T08:53:25.701Z,4.58
2023-11-26T08:54:48.231Z,4.15
2023-11-26T08:56:10.004Z,3.50
2023-11-26T08:57:39.523Z,2.86
2023-11-26T08:59:01.469Z,2.26
2023-11-26T09:00:23.046Z,1.81
2023-11-26T09:01:45.971Z,1.45
2023-11-26T09:03:07.725Z,1.69
2023-11-26T09:04:29.283Z,2.53
2023-11-26T09:05:51.857Z,3.51
2023-11-26T09:07:13.736Z,4.37
2023-11-26T09:08:36.213Z,4.74
2023-11-26T09:09:57.988Z,4.38
2023-11-26T09:11:19.736Z,3.76
2023-11-26T09:12:44.152Z,3.13
2023-11-26T09:14:08.391Z,2.55
2023-11-26T09:15:34.382Z,2.03
2023-11-26T09:16:58.781Z,1.63
2023-11-26T09:18:27.822Z,1.71
2023-11-26T09:19:50.263Z,2.56
2023-11-26T09:21:13.954Z,3.51
2023-11-26T09:22:36.255Z,4.40
2023-11-26T09:24:01.346Z,4.76
2023-11-26T09:25:23.673Z,4.35
2023-11-26T09:26:53.213Z,3.67
2023-11-26T09:28:15.530Z,3.05
2023-11-26T09:29:47.239Z,2.47
2023-11-26T09:31:11.569Z,2.04
2023-11-26T09:32:46.060Z,1.67
2023-11-26T09:34:07.643Z,1.97
2023-11-26T09:35:29.166Z,2.82
2023-11-26T09:36:53.635Z,3.78
2023-11-26T09:38:15.761Z,4.68
2023-11-26T09:39:38.418Z,4.99
2023-11-26T09:41:02.652Z,4.54
2023-11-26T09:42:24.539Z,3.89
2023-11-26T09:43:54.214Z,3.24
2023-11-26T09:45:16.249Z,2.62
2023-11-26T09:46:38.143Z,2.13
2023-11-26T09:48:02.081Z,1.71
2023-11-26T09:49:24.614Z,1.73
2023-11-26T09:50:46.592Z,2.45
2023-11-26T09:52:07.997Z,3.41
2023-11-26T09:53:30.205Z,4.32
2023-11-26T09:54:56.907Z,4.96
2023-11-26T09:56:18.662Z,4.75
2023-11-26T09:57:42.136Z,4.13
2023-11-26T09:59:17.774Z,3.48
2023-11-26T10:00:42.550Z,2.82
2023-11-26T10:02:04.675Z,2.33
2023-11-26T10:03:26.483Z,1.94
2023-11-26T10:04:48.941Z,1.87
2023-11-26T10:06:10.825Z,2.56
2023-11-26T10:07:43.453Z,3.62
2023-11-26T10:09:06.074Z,4.61
2023-11-26T10:10:35.334Z,5.14
2023-11-26T10:11:57.490Z,4.83
2023-11-26T10:13:19.604Z,4.19
2023-11-26T10:14:44.164Z,3.53
2023-11-26T10:16:05.958Z,2.96
2023-11-26T10:17:27.418Z,2.49
2023-11-26T10:18:52.015Z,2.08
2023-11-26T10:20:13.576Z,1.83
2023-11-26T10:21:37.763Z,2.31
2023-11-26T10:22:59.956Z,3.20
2023-11-26T10:24:33.938Z,4.28
2023-11-26T10:25:55.589Z,4.96
2023-11-26T10:27:17.252Z,4.83
2023-11-26T10:28:47.262Z,4.17
2023-11-26T10:30:08.849Z,3.54
2023-11-26T10:31:30.488Z,2.95
2023-11-26T10:32:52.881Z,2.44
2023-11-26T10:34:15.041Z,2.01
2023-11-26T10:35:44.650Z,1.70
2023-11-26T10:37:06.143Z,2.06
2023-11-26T10:38:35.333Z,2.97
2023-11-26T10:39:57.596Z,4.10
2023-11-26T10:41:19.704Z,5.02
2023-11-26T10:42:42.061Z,5.24
2023-11-26T10:44:03.775Z,4.81
2023-11-26T10:45:28.750Z,4.20
2023-11-26T10:46:51.434Z,3.58
2023-11-26T10:48:30.392Z,3.06
2023-11-26T10:49:52.932Z,2.56
2023-11-26T10:51:20.557Z,2.21
2023-11-26T10:52:51.128Z,1.89
2023-11-26T10:54:12.564Z,2.10
2023-11-26T10:55:35.763Z,2.99
2023-11-26T10:56:57.661Z,4.01
2023-11-26T10:58:19.689Z,4.89
2023-11-26T10:59:44.389Z,5.04
2023-11-26T11:01:06.274Z,4.58
2023-11-26T11:02:28.025Z,3.99
2023-11-26T11:03:53.392Z,3.41
2023-11-26T11:05:22.752Z,2.92
2023-11-26T11:06:54.705Z,2.48
2023-11-26T11:08:17.893Z,2.13
2023-11-26T11:09:42.548Z,1.94
2023-11-26T11:11:04.580Z,2.47
2023-11-26T11:12:28.767Z,3.42
2023-11-26T11:13:53.063Z,4.45
2023-11-26T11:15:17.189Z,5.03
2023-11-26T11:16:39.469Z,4.81
2023-11-26T11:18:01.512Z,4.24
2023-11-26T11:19:25.774Z,3.65
2023-11-26T11:20:50.370Z,3.11
2023-11-26T11:22:12.079Z,2.67
2023-11-26T11:23:34.483Z,2.30
2023-11-26T11:24:56.184Z,2.01
2023-11-26T11:26:17.653Z,1.95
2023-11-26T11:27:40.191Z,2.60
2023-11-26T11:29:05.294Z,3.58
2023-11-26T11:30:28.894Z,4.59
2023-11-26T11:31:59.768Z,5.06
2023-11-26T11:33:23.717Z,4.69
2023-11-26T11:34:48.084Z,4.12
2023-11-26T11:36:10.616Z,3.53
2023-11-26T11:37:33.037Z,3.01
2023-11-26T11:39:06.164Z,2.57
2023-11-26T11:40:32.134Z,2.14
2023-11-26T11:41:54.192Z,1.81
2023-11-26T11:43:23.275Z,1.80
2023-11-26T11:44:46.030Z,2.61
2023-11-26T11:46:17.621Z,3.72
2023-11-26T11:47:42.391Z,4.69
2023-11-26T11:49:53.009Z,5.00
2023-11-26T11:51:21.937Z,4.41
2023-11-26T11:52:44.465Z,3.78
2023-11-26T11:54:06.529Z,3.27
2023-11-26T11:55:27.986Z,2.83
2023-11-26T11:56:50.419Z,2.47
2023-11-26T11:58:19.853Z,2.17
2023-11-26T11:59:41.930Z,1.99
2023-11-26T12:01:04.849Z,2.52
2023-11-26T12:02:26.709Z,3.47
2023-11-26T12:03:49.369Z,4.44
2023-11-26T12:05:18.729Z,5.03
2023-11-26T12:06:42.737Z,4.76
2023-11-26T12:08:05.326Z,4.17
2023-11-26T12:09:29.591Z,3.60
2023-11-26T12:10:52.053Z,3.07
2023-11-26T12:12:13.810Z,2.64
2023-11-26T12:13:43.805Z,2.26
2023-11-26T12:15:05.667Z,1.91
2023-11-26T12:16:29.644Z,1.64
2023-11-26T12:17:52.057Z,1.75
2023-11-26T12:19:14.245Z,2.58
2023-11-26T12:20:43.885Z,3.71
2023-11-26T12:22:07.113Z,4.65
2023-11-26T12:23:31.399Z,4.87
2023-11-26T12:24:58.755Z,4.42
2023-11-26T12:26:20.131Z,3.81
2023-11-26T12:27:47.062Z,3.23
2023-11-26T12:29:08.950Z,2.74
2023-11-26T12:30:33.086Z,2.33
2023-11-26T12:31:55.390Z,1.97
2023-11-26T12:33:19.317Z,1.67
2023-11-26T12:34:43.905Z,1.42
2023-11-26T12:36:05.793Z,1.69
2023-11-26T12:37:30.240Z,2.60
2023-11-26T12:38:52.885Z,3.64
2023-11-26T12:40:15.129Z,4.55
2023-11-26T12:41:36.895Z,4.68
2023-11-26T12:42:59.085Z,4.22
2023-11-26T12:44:21.882Z,3.65
2023-11-26T12:45:44.439Z,3.11
2023-11-26T12:47:06.413Z,2.66
2023-11-26T12:48:28.010Z,2.26
2023-11-26T12:49:50.085Z,1.91
2023-11-26T12:51:12.111Z,1.62
2023-11-26T12:52:34.553Z,1.42
2023-11-26T12:53:56.610Z,1.85
2023-11-26T12:55:18.182Z,2.78
2023-11-26T12:56:52.317Z,3.81
2023-11-26T12:58:29.578Z,4.63
2023-11-26T13:00:03.384Z,4.29
2023-11-26T13:01:27.315Z,3.72
2023-11-26T13:02:56.774Z,3.10
2023-11-26T13:04:18.781Z,2.62
2023-11-26T13:05:46.539Z,2.20
2023-11-26T13:07:08.863Z,1.84
2023-11-26T13:08:46.612Z,1.54
2023-11-26T13:10:09.756Z,1.40
2023-11-26T13:11:39.334Z,2.02
2023-11-26T13:13:01.453Z,3.14
2023-11-26T13:14:25.634Z,4.18
2023-11-26T13:15:49.125Z,4.77
2023-11-26T13:17:22.170Z,4.46
2023-11-26T13:18:44.454Z,3.87
2023-11-26T13:20:11.010Z,3.29
2023-11-26T13:21:37.706Z,2.73
2023-11-26T13:23:03.303Z,2.27
2023-11-26T13:24:27.923Z,1.88
2023-11-26T13:25:55.819Z,1.56
2023-11-26T13:27:17.422Z,1.26
2023-11-26T13:28:43.275Z,1.02
2023-11-26T13:30:06.570Z,0.83
2023-11-26T13:31:27.949Z,1.19
2023-11-26T13:32:50.539Z,2.12
2023-11-26T13:34:12.485Z,3.18
2023-11-26T13:35:36.082Z,4.00
2023-11-26T13:36:57.680Z,4.02
2023-11-26T13:38:21.772Z,3.57
2023-11-26T13:39:43.931Z,3.01
2023-11-26T13:41:05.735Z,2.52
2023-11-26T13:42:27.626Z,2.11
2023-11-26T13:43:52.102Z,1.75
2023-11-26T13:45:21.534Z,1.45
2023-11-26T13:46:44.315Z,1.18
2023-11-26T13:48:13.626Z,0.94
2023-11-26T13:49:35.726Z,0.85
2023-11-26T13:50:58.018Z,1.44
2023-11-26T13:52:19.707Z,2.48
2023-11-26T13:53:41.679Z,3.55
2023-11-26T13:55:03.928Z,4.32
2023-11-26T13:56:27.088Z,4.25
2023-11-26T13:57:49.631Z,3.73
2023-11-26T13:59:12.558Z,3.17
2023-11-26T14:00:46.475Z,2.57
2023-11-26T14:02:10.820Z,2.14
2023-11-26T14:03:32.687Z,1.79
2023-11-26T14:04:56.560Z,1.49
2023-11-26T14:06:18.244Z,1.22
2023-11-26T14:07:43.080Z,0.99
2023-11-26T14:09:06.718Z,1.28
2023-11-26T14:10:29.037Z,2.20
2023-11-26T14:11:53.071Z,3.24
2023-11-26T14:13:28.638Z,4.12
2023-11-26T14:14:50.889Z,4.17
2023-11-26T14:16:12.630Z,3.68
2023-11-26T14:17:37.082Z,3.10
2023-11-26T14:19:09.085Z,2.56
2023-11-26T14:20:38.950Z,2.05
2023-11-26T14:22:24.171Z,1.64
2023-11-26T14:23:46.073Z,1.31
2023-11-26T14:25:12.350Z,1.05
2023-11-26T14:26:37.336Z,0.83
2023-11-26T14:28:06.315Z,1.26
2023-11-26T14:29:37.915Z,2.39
2023-11-26T14:31:13.006Z,3.44
2023-11-26T14:32:48.617Z,4.16
2023-11-26T14:34:18.710Z,3.83
2023-11-26T14:35:44.448Z,3.22
2023-11-26T14:37:13.692Z,2.67
2023-11-26T14:38:47.614Z,2.16
2023-11-26T14:40:33.244Z,1.65
2023-11-26T14:42:10.246Z,1.27
2023-11-26T14:43:32.589Z,0.94
2023-11-26T14:44:54.688Z,0.85
2023-11-26T14:46:26.684Z,1.57
2023-11-26T14:47:49.207Z,2.65
2023-11-26T14:49:11.246Z,3.64
2023-11-26T14:50:37.880Z,4.17
2023-11-26T14:52:00.326Z,3.90
2023-11-26T14:53:26.944Z,3.33
2023-11-26T14:54:49.436Z,2.73
2023-11-26T14:56:13.422Z,2.23
2023-11-26T14:57:35.738Z,1.79
2023-11-26T14:58:57.541Z,1.42
2023-11-26T15:00:18.909Z,1.10
2023-11-26T15:01:41.116Z,0.82
2023-11-26T15:03:02.912Z,0.70
2023-11-26T15:04:24.204Z,1.26
2023-11-26T15:05:46.279Z,2.25
2023-11-26T15:07:08.629Z,3.28
2023-11-26T15:08:31.146Z,4.01
2023-11-26T15:09:53.712Z,3.90
2023-11-26T15:11:15.672Z,3.39
2023-11-26T15:12:37.534Z,2.82
2023-11-26T15:13:59.703Z,2.30
2023-11-26T15:15:31.873Z,1.85
2023-11-26T15:16:55.893Z,1.44
2023-11-26T15:18:17.752Z,1.11
2023-11-26T15:19:42.176Z,0.84
2023-11-26T15:21:05.321Z,0.86
2023-11-26T15:22:30.445Z,1.67
2023-11-26T15:23:52.800Z,2.71
2023-11-26T15:25:16.029Z,3.69
2023-11-26T15:26:38.589Z,4.19
2023-11-26T15:28:02.776Z,3.88
2023-11-26T15:29:24.500Z,3.30
2023-11-26T15:30:46.618Z,2.72
2023-11-26T15:32:10.418Z,2.21
2023-11-26T15:33:38.069Z,1.72
2023-11-26T15:35:01.949Z,1.34
2023-11-26T15:36:23.589Z,1.02
2023-11-26T15:37:46.501Z,0.75
2023-11-26T15:39:10.751Z,1.03
2023-11-26T15:40:33.488Z,1.95
2023-11-26T15:41:56.204Z,2.99
2023-11-26T15:43:22.085Z,3.93
2023-11-26T15:44:53.227Z,4.17
2023-11-26T15:46:16.969Z,3.67
2023-11-26T15:47:41.055Z,3.05
2023-11-26T15:49:02.979Z,2.46
2023-11-26T15:50:26.412Z,1.98
2023-11-26T15:51:50.561Z,1.56
2023-11-26T15:53:12.918Z,1.21
2023-11-26T15:54:34.901Z,0.91
2023-11-26T15:55:56.691Z,0.81
2023-11-26T15:57:18.537Z,1.43
2023-11-26T15:58:41.304Z,2.42
2023-11-26T16:00:03.269Z,3.42
2023-11-26T16:01:34.704Z,4.09
2023-11-26T16:02:57.457Z,3.87
2023-11-26T16:04:19.648Z,3.30
2023-11-26T16:05:42.014Z,2.70
2023-11-26T16:07:06.507Z,2.18
2023-11-26T16:08:28.237Z,1.71
2023-11-26T16:09:53.220Z,1.32
2023-11-26T16:11:17.239Z,0.96
2023-11-26T16:12:39.810Z,0.79
2023-11-26T16:14:01.869Z,1.31
2023-11-26T16:15:27.786Z,2.30
2023-11-26T16:16:59.913Z,3.33
2023-11-26T16:18:34.956Z,4.17
2023-11-26T16:19:57.384Z,3.95
2023-11-26T16:21:19.181Z,3.38
2023-11-26T16:22:41.135Z,2.77
2023-11-26T16:24:05.147Z,2.23
2023-11-26T16:25:28.199Z,1.76
2023-11-26T16:26:52.184Z,1.36
2023-11-26T16:28:15.990Z,0.99
2023-11-26T16:29:38.227Z,0.68
2023-11-26T16:31:00.478Z,0.91
2023-11-26T16:32:23.589Z,1.75
2023-11-26T16:33:51.036Z,2.80
2023-11-26T16:35:12.940Z,3.67
2023-11-26T16:36:34.929Z,3.78
2023-11-26T16:37:57.404Z,3.31
2023-11-26T16:39:21.469Z,2.69
2023-11-26T16:40:43.305Z,2.11
2023-11-26T16:42:07.836Z,1.60
2023-11-26T16:43:30.402Z,1.18
2023-11-26T16:44:52.810Z,0.82
2023-11-26T16:46:14.537Z,0.54
2023-11-26T16:47:38.114Z,0.79
2023-11-26T16:49:03.361Z,1.72
2023-11-26T16:50:24.967Z,2.76
2023-11-26T16:51:49.912Z,3.67
2023-11-26T16:53:12.014Z,3.93
2023-11-26T16:54:34.247Z,3.51
2023-11-26T16:55:56.155Z,2.89
2023-11-26T16:57:25.006Z,2.25
2023-11-26T16:58:47.170Z,1.74
2023-11-26T17:00:09.939Z,1.31
2023-11-26T17:01:31.731Z,0.94
2023-11-26T17:02:54.174Z,0.68
2023-11-26T17:04:18.672Z,1.11
2023-11-26T17:05:41.065Z,2.04
2023-11-26T17:07:03.340Z,3.06
2023-11-26T17:08:27.569Z,3.95
2023-11-26T17:09:50.237Z,4.16
2023-11-26T17:11:11.934Z,3.70
2023-11-26T17:12:39.019Z,3.07
2023-11-26T17:14:01.363Z,2.43
2023-11-26T17:15:23.871Z,1.91
2023-11-26T17:16:53.384Z,1.43
2023-11-26T17:18:15.259Z,1.05
2023-11-26T17:19:37.497Z,0.77
2023-11-26T17:20:59.633Z,1.16
2023-11-26T17:22:20.978Z,2.04
2023-11-26T17:23:48.796Z,3.02
2023-11-26T17:25:13.483Z,3.94
2023-11-26T17:26:35.771Z,4.06
2023-11-26T17:27:57.900Z,3.56
2023-11-26T17:29:19.819Z,2.93
2023-11-26T17:30:42.206Z,2.32
2023-11-26T17:32:04.827Z,1.80
2023-11-26T17:33:26.999Z,1.36
2023-11-26T17:34:51.566Z,0.99
2023-11-26T17:36:15.362Z,0.82
2023-11-26T17:37:39.772Z,1.44
2023-11-26T17:39:05.260Z,2.42
2023-11-26T17:40:26.842Z,3.38
2023-11-26T17:41:49.022Z,4.01
2023-11-26T17:43:10.928Z,3.84
2023-11-26T17:44:36.234Z,3.28
2023-11-26T17:46:00.000Z,2.63
2023-11-26T17:47:24.019Z,2.05
2023-11-26T17:48:46.262Z,1.58
2023-11-26T17:50:08.184Z,1.18
2023-11-26T17:51:30.312Z,0.84
2023-11-26T17:53:03.689Z,0.92
2023-11-26T17:54:46.663Z,2.13
2023-11-26T17:56:10.945Z,3.25
2023-11-26T17:57:35.797Z,4.09
2023-11-26T17:58:58.298Z,4.10
2023-11-26T18:00:20.957Z,3.58
2023-11-26T18:02:02.479Z,2.84
2023-11-26T18:03:31.872Z,2.21
2023-11-26T18:04:53.922Z,1.67
2023-11-26T18:06:18.930Z,1.25
2023-11-26T18:07:40.837Z,0.87
2023-11-26T18:09:02.747Z,0.70
2023-11-26T18:10:24.956Z,1.25
2023-11-26T18:11:47.156Z,2.22
2023-11-26T18:13:11.035Z,3.21
2023-11-26T18:14:32.961Z,3.97
2023-11-26T18:15:55.091Z,3.92
2023-11-26T18:17:16.978Z,3.37
2023-11-26T18:18:39.151Z,2.73
2023-11-26T18:20:00.988Z,2.15
2023-11-26T18:21:23.307Z,1.64
2023-11-26T18:22:46.486Z,1.22
2023-11-26T18:24:08.700Z,0.85
2023-11-26T18:25:30.625Z,0.69
2023-11-26T18:26:53.423Z,1.27
2023-11-26T18:28:17.507Z,2.27
2023-11-26T18:29:40.491Z,3.25
2023-11-26T18:31:03.517Z,3.93
2023-11-26T18:32:25.366Z,3.81
2023-11-26T18:33:47.483Z,3.24
2023-11-26T18:35:09.748Z,2.60
2023-11-26T18:36:31.274Z,2.02
2023-11-26T18:37:55.629Z,1.51
2023-11-26T18:39:19.840Z,1.08
2023-11-26T18:40:41.976Z,0.69
2023-11-26T18:42:03.989Z,0.65
2023-11-26T18:43:28.567Z,1.36
2023-11-26T18:44:50.609Z,2.37
2023-11-26T18:46:12.828Z,3.31
2023-11-26T18:47:34.911Z,3.88
2023-11-26T18:48:56.746Z,3.65
2023-11-26T18:50:20.672Z,3.02